Time,TemperatureF,DewpointF,PressureIn,WindDirection,WindDirectionDegrees,WindSpeedMPH,WindSpeedGustMPH,Humidity,HourlyPrecipIn,Conditions,Clouds,dailyrainin,SoftwareType,DateUTC
2013-05-09 00:02:00,33.0,32.9,0.00,WSW,250,8.9,-999.0,99,0.00,,,-99.99,,2013-05-09 08:02:00,
2013-05-09 00:07:00,33.1,33.1,0.00,WSW,245,7.3,-999.0,99,0.00,,,-99.99,,2013-05-09 08:07:00,
2013-05-09 00:12:00,32.9,32.8,0.00,WSW,248,7.4,-999.0,99,0.00,,,-99.99,,2013-05-09 08:12:00,
2013-05-09 00:17:00,32.9,32.8,0.00,WSW,245,6.6,-999.0,99,0.00,,,-99.99,,2013-05-09 08:17:00,
2013-05-09 00:22:00,32.8,32.7,0.00,SW,228,6.3,-999.0,99,0.00,,,-99.99,,2013-05-09 08:22:00,
2013-05-09 00:27:00,32.7,32.7,0.00,SW,224,5.7,-999.0,99,0.00,,,-99.99,,2013-05-09 08:27:00,
2013-05-09 00:34:00,32.9,32.8,0.00,SW,230,4.8,-999.0,99,0.00,,,-99.99,,2013-05-09 08:34:00,
2013-05-09 00:40:00,32.7,32.7,0.00,SW,221,5.7,-999.0,99,0.00,,,-99.99,,2013-05-09 08:40:00,
2013-05-09 00:46:00,32.7,32.6,0.00,SW,223,4.8,-999.0,99,0.00,,,-99.99,,2013-05-09 08:46:00,
2013-05-09 00:52:00,33.0,32.9,0.00,SW,231,6.4,-999.0,99,0.00,,,-99.99,,2013-05-09 08:52:00,
2013-05-09 00:57:00,33.0,32.9,0.00,SW,233,5.9,-999.0,99,0.00,,,-99.99,,2013-05-09 08:57:00,
2013-05-09 01:02:00,33.2,33.1,0.00,SW,230,7.5,-999.0,99,0.00,,,-99.99,,2013-05-09 09:02:00,
2013-05-09 01:07:00,33.2,33.1,0.00,SW,226,6.1,-999.0,99,0.00,,,-99.99,,2013-05-09 09:07:00,
2013-05-09 01:12:00,33.2,33.1,0.00,SW,236,7.4,-999.0,99,0.00,,,-99.99,,2013-05-09 09:12:00,
2013-05-09 01:17:00,33.5,33.3,0.00,SW,230,8.2,-999.0,99,0.00,,,-99.99,,2013-05-09 09:17:00,
2013-05-09 01:22:00,33.2,33.1,0.00,WSW,242,8.0,-999.0,99,0.00,,,-99.99,,2013-05-09 09:22:00,
2013-05-09 01:27:00,33.3,33.2,0.00,SW,231,7.3,-999.0,99,0.00,,,-99.99,,2013-05-09 09:27:00,
2013-05-09 01:32:00,33.2,33.1,0.00,WSW,248,7.2,-999.0,99,0.00,,,-99.99,,2013-05-09 09:32:00,
2013-05-09 01:37:00,33.2,33.1,0.00,WSW,246,7.2,-999.0,99,0.00,,,-99.99,,2013-05-09 09:37:00,
2013-05-09 01:42:00,33.3,33.2,0.00,WSW,237,6.7,-999.0,99,0.00,,,-99.99,,2013-05-09 09:42:00,
2013-05-09 01:47:00,33.3,33.2,0.00,WSW,250,8.8,-999.0,99,0.00,,,-99.99,,2013-05-09 09:47:00,
2013-05-09 01:52:00,33.3,33.3,0.00,WSW,245,7.4,-999.0,99,0.00,,,-99.99,,2013-05-09 09:52:00,
2013-05-09 01:57:00,33.4,33.3,0.00,WSW,249,7.4,-999.0,99,0.00,,,-99.99,,2013-05-09 09:57:00,
2013-05-09 02:02:00,33.3,33.2,0.00,WSW,244,10.3,-999.0,99,0.00,,,-99.99,,2013-05-09 10:02:00,
2013-05-09 02:07:00,33.5,33.4,0.00,WSW,248,7.4,-999.0,99,0.00,,,-99.99,,2013-05-09 10:07:00,
2013-05-09 02:12:00,33.3,33.3,0.00,WSW,237,8.1,-999.0,99,0.00,,,-99.99,,2013-05-09 10:12:00,
2013-05-09 02:17:00,33.2,33.1,0.00,WSW,238,7.2,-999.0,99,0.00,,,-99.99,,2013-05-09 10:17:00,
2013-05-09 02:22:00,33.3,33.2,0.00,WSW,248,7.6,-999.0,99,0.00,,,-99.99,,2013-05-09 10:22:00,
2013-05-09 02:27:00,33.5,33.4,0.00,WSW,241,8.1,-999.0,99,0.00,,,-99.99,,2013-05-09 10:27:00,
2013-05-09 02:32:00,33.3,33.2,0.00,WSW,242,8.3,-999.0,99,0.00,,,-99.99,,2013-05-09 10:32:00,
2013-05-09 02:37:00,33.3,33.2,0.00,WSW,239,8.4,-999.0,99,0.00,,,-99.99,,2013-05-09 10:37:00,
2013-05-09 02:42:00,33.4,33.3,0.00,WSW,237,5.8,-999.0,99,0.00,,,-99.99,,2013-05-09 10:42:00,
2013-05-09 02:47:00,33.5,33.4,0.00,WSW,241,8.3,-999.0,99,0.00,,,-99.99,,2013-05-09 10:47:00,
2013-05-09 02:52:00,33.4,33.3,0.00,WSW,254,8.3,-999.0,99,0.00,,,-99.99,,2013-05-09 10:52:00,
2013-05-09 02:57:00,33.6,33.5,0.00,WSW,248,7.9,-999.0,99,0.00,,,-99.99,,2013-05-09 10:57:00,
2013-05-09 03:02:00,33.5,33.4,0.00,WSW,252,11.4,-999.0,99,0.00,,,-99.99,,2013-05-09 11:02:00,
2013-05-09 03:07:00,33.7,33.5,0.00,SW,236,9.6,-999.0,99,0.00,,,-99.99,,2013-05-09 11:07:00,
2013-05-09 03:12:00,33.7,33.5,0.00,WSW,250,7.8,-999.0,99,0.00,,,-99.99,,2013-05-09 11:12:00,
2013-05-09 03:17:00,33.8,33.7,0.00,NNW,337,3.5,-999.0,99,0.00,,,-99.99,,2013-05-09 11:17:00,
2013-05-09 03:22:00,33.8,33.7,0.00,WSW,253,6.9,-999.0,99,0.00,,,-99.99,,2013-05-09 11:22:00,
2013-05-09 03:27:00,33.7,33.6,0.00,WNW,287,7.5,-999.0,99,0.00,,,-99.99,,2013-05-09 11:27:00,
2013-05-09 03:32:00,33.3,33.3,0.00,WSW,255,10.5,-999.0,99,0.00,,,-99.99,,2013-05-09 11:32:00,
2013-05-09 03:37:00,33.4,33.3,0.00,WSW,251,11.2,-999.0,99,0.00,,,-99.99,,2013-05-09 11:37:00,
2013-05-09 03:42:00,33.1,33.0,0.00,West,277,11.1,-999.0,99,0.00,,,-99.99,,2013-05-09 11:42:00,
2013-05-09 03:47:00,33.1,33.0,0.00,WSW,251,8.5,-999.0,99,0.00,,,-99.99,,2013-05-09 11:47:00,
2013-05-09 03:52:00,33.1,33.0,0.00,WSW,255,10.5,-999.0,99,0.00,,,-99.99,,2013-05-09 11:52:00,
2013-05-09 03:57:00,33.2,33.1,0.00,WSW,244,10.5,-999.0,99,0.00,,,-99.99,,2013-05-09 11:57:00,
2013-05-09 04:02:00,33.2,33.1,0.00,WSW,246,10.6,-999.0,99,0.00,,,-99.99,,2013-05-09 12:02:00,
2013-05-09 04:07:00,33.4,32.9,0.00,WSW,240,8.2,-999.0,98,0.00,,,-99.99,,2013-05-09 12:07:00,
2013-05-09 04:12:00,33.4,32.7,0.00,WSW,243,8.8,-999.0,97,0.00,,,-99.99,,2013-05-09 12:12:00,
2013-05-09 04:17:00,33.5,32.7,0.00,SW,226,8.7,-999.0,97,0.00,,,-99.99,,2013-05-09 12:17:00,
2013-05-09 04:22:00,33.4,32.4,0.00,SW,234,8.8,-999.0,96,0.00,,,-99.99,,2013-05-09 12:22:00,
2013-05-09 04:27:00,33.5,32.4,0.00,SW,233,8.7,-999.0,96,0.00,,,-99.99,,2013-05-09 12:27:00,
2013-05-09 04:32:00,33.5,32.4,0.00,SW,229,9.7,-999.0,95,0.00,,,-99.99,,2013-05-09 12:32:00,
2013-05-09 04:37:00,33.5,32.5,0.00,SW,227,9.1,-999.0,96,0.00,,,-99.99,,2013-05-09 12:37:00,
2013-05-09 04:42:00,33.5,32.6,0.00,SW,221,8.0,-999.0,96,0.00,,,-99.99,,2013-05-09 12:42:00,
2013-05-09 04:47:00,33.5,32.7,0.00,SSW,205,4.6,-999.0,96,0.00,,,-99.99,,2013-05-09 12:47:00,
2013-05-09 04:52:00,33.5,32.7,0.00,SW,218,4.9,-999.0,96,0.00,,,-99.99,,2013-05-09 12:52:00,
2013-05-09 04:57:00,33.5,32.8,0.00,SW,215,6.3,-999.0,97,0.00,,,-99.99,,2013-05-09 12:57:00,
2013-05-09 05:02:00,33.5,32.7,0.00,SSW,208,5.7,-999.0,97,0.00,,,-99.99,,2013-05-09 13:02:00,
2013-05-09 05:07:00,33.4,32.7,0.00,SSW,204,5.0,-999.0,97,0.00,,,-99.99,,2013-05-09 13:07:00,
2013-05-09 05:12:00,33.5,32.8,0.00,SSW,199,5.2,-999.0,97,0.00,,,-99.99,,2013-05-09 13:12:00,
2013-05-09 05:17:00,33.5,32.9,0.00,SSW,211,5.8,-999.0,97,0.00,,,-99.99,,2013-05-09 13:17:00,
2013-05-09 05:22:00,33.5,33.0,0.00,SW,218,7.5,-999.0,98,0.00,,,-99.99,,2013-05-09 13:22:00,
2013-05-09 05:27:00,33.6,33.1,0.00,SW,225,7.6,-999.0,98,0.00,,,-99.99,,2013-05-09 13:27:00,
2013-05-09 05:32:00,33.6,33.1,0.00,SW,224,9.6,-999.0,98,0.00,,,-99.99,,2013-05-09 13:32:00,
2013-05-09 05:37:00,33.7,33.3,0.00,SW,227,10.2,-999.0,98,0.00,,,-99.99,,2013-05-09 13:37:00,
2013-05-09 05:42:00,33.8,33.6,0.00,WSW,245,11.0,-999.0,99,0.00,,,-99.99,,2013-05-09 13:42:00,
2013-05-09 05:47:00,33.7,33.5,0.00,SW,231,10.9,-999.0,99,0.00,,,-99.99,,2013-05-09 13:47:00,
2013-05-09 05:52:00,32.9,32.7,0.00,SW,231,11.9,-999.0,99,0.00,,,-99.99,,2013-05-09 13:52:00,
2013-05-09 05:57:00,33.0,32.8,0.00,SW,232,8.7,-999.0,99,0.00,,,-99.99,,2013-05-09 13:57:00,
2013-05-09 06:02:00,32.7,32.6,0.00,SW,224,8.1,-999.0,99,0.00,,,-99.99,,2013-05-09 14:02:00,
2013-05-09 06:07:00,32.9,32.8,0.00,WSW,242,12.1,-999.0,99,0.00,,,-99.99,,2013-05-09 14:07:00,
2013-05-09 06:12:00,32.5,32.4,0.00,SW,234,11.5,-999.0,99,0.00,,,-99.99,,2013-05-09 14:12:00,
2013-05-09 06:17:00,32.5,32.4,0.00,SW,216,10.0,-999.0,99,0.00,,,-99.99,,2013-05-09 14:17:00,
2013-05-09 06:22:00,32.4,32.2,0.00,SW,218,12.6,-999.0,99,0.00,,,-99.99,,2013-05-09 14:22:00,
2013-05-09 06:27:00,32.4,32.2,0.00,SW,221,12.6,-999.0,99,0.00,,,-99.99,,2013-05-09 14:27:00,
2013-05-09 06:32:00,32.3,32.2,0.00,SW,230,12.0,-999.0,99,0.00,,,-99.99,,2013-05-09 14:32:00,
2013-05-09 06:37:00,32.4,32.3,0.00,SW,218,9.9,-999.0,99,0.00,,,-99.99,,2013-05-09 14:37:00,
2013-05-09 06:42:00,32.2,32.1,0.00,SW,216,9.0,-999.0,99,0.00,,,-99.99,,2013-05-09 14:42:00,
2013-05-09 06:47:00,32.0,31.9,0.00,SW,236,11.0,-999.0,99,0.00,,,-99.99,,2013-05-09 14:47:00,
2013-05-09 06:52:00,32.1,32.0,0.00,WSW,241,8.2,-999.0,99,0.00,,,-99.99,,2013-05-09 14:52:00,
2013-05-09 06:57:00,32.2,32.1,0.00,SW,217,6.5,-999.0,99,0.00,,,-99.99,,2013-05-09 14:57:00,
2013-05-09 07:02:00,32.2,32.1,0.00,SW,228,10.8,-999.0,99,0.00,,,-99.99,,2013-05-09 15:02:00,
2013-05-09 07:07:00,32.2,32.1,0.00,SW,228,10.2,-999.0,99,0.00,,,-99.99,,2013-05-09 15:07:00,
2013-05-09 07:12:00,32.2,32.0,0.00,SW,230,11.1,-999.0,100,0.00,,,-99.99,,2013-05-09 15:12:00,
2013-05-09 07:17:00,32.2,32.1,0.00,SW,226,10.1,-999.0,99,0.00,,,-99.99,,2013-05-09 15:17:00,
2013-05-09 07:22:00,32.1,32.0,0.00,WSW,242,7.9,-999.0,100,0.00,,,-99.99,,2013-05-09 15:22:00,
2013-05-09 07:27:00,32.1,32.0,0.00,SW,215,5.6,-999.0,100,0.00,,,-99.99,,2013-05-09 15:27:00,
2013-05-09 07:32:00,32.1,32.0,0.00,SW,217,9.2,-999.0,100,0.00,,,-99.99,,2013-05-09 15:32:00,
2013-05-09 07:37:00,32.1,32.0,0.00,SW,222,9.3,-999.0,100,0.01,,,-99.99,,2013-05-09 15:37:00,
2013-05-09 07:42:00,32.2,32.0,0.00,SW,227,11.4,-999.0,100,0.01,,,-99.99,,2013-05-09 15:42:00,
2013-05-09 07:47:00,32.3,32.0,0.00,SW,233,9.8,-999.0,100,0.01,,,-99.99,,2013-05-09 15:47:00,
2013-05-09 07:52:00,32.3,32.0,0.00,SW,224,8.9,-999.0,100,0.02,,,-99.99,,2013-05-09 15:52:00,
2013-05-09 07:57:00,32.4,32.0,0.00,SW,222,12.0,-999.0,100,0.02,,,-99.99,,2013-05-09 15:57:00,
2013-05-09 08:02:00,32.2,32.0,0.00,SW,223,9.3,-999.0,100,0.00,,,-99.99,,2013-05-09 16:02:00,
2013-05-09 08:07:00,32.4,32.0,0.00,SW,218,9.3,-999.0,100,0.00,,,-99.99,,2013-05-09 16:07:00,
2013-05-09 08:12:00,32.4,32.0,0.00,WSW,237,9.2,-999.0,100,0.00,,,-99.99,,2013-05-09 16:12:00,
2013-05-09 08:17:00,32.6,32.0,0.00,SW,219,10.0,-999.0,100,0.00,,,-99.99,,2013-05-09 16:17:00,
2013-05-09 08:22:00,32.5,32.0,0.00,SW,214,12.0,-999.0,100,0.00,,,-99.99,,2013-05-09 16:22:00,
2013-05-09 08:27:00,32.6,32.0,0.00,SW,218,8.1,-999.0,100,0.00,,,-99.99,,2013-05-09 16:27:00,
2013-05-09 08:32:00,32.5,32.0,0.00,SW,217,7.8,-999.0,100,0.00,,,-99.99,,2013-05-09 16:32:00,
2013-05-09 08:37:00,32.9,32.0,0.00,SW,235,9.1,-999.0,100,0.00,,,-99.99,,2013-05-09 16:37:00,
2013-05-09 08:42:00,32.7,32.0,0.00,SSW,204,10.3,-999.0,100,0.00,,,-99.99,,2013-05-09 16:42:00,
2013-05-09 08:47:00,32.8,32.0,0.00,South,180,9.4,-999.0,100,0.00,,,-99.99,,2013-05-09 16:47:00,
2013-05-09 08:52:00,32.9,32.0,0.00,South,177,7.4,-999.0,100,0.00,,,-99.99,,2013-05-09 16:52:00,
2013-05-09 08:57:00,33.0,32.0,0.00,South,190,10.6,-999.0,100,0.00,,,-99.99,,2013-05-09 16:57:00,
2013-05-09 09:02:00,33.0,32.0,0.00,South,183,7.9,-999.0,100,0.00,,,-99.99,,2013-05-09 17:02:00,
2013-05-09 09:07:00,33.1,33.0,0.00,South,191,9.5,-999.0,100,0.00,,,-99.99,,2013-05-09 17:07:00,
2013-05-09 09:12:00,33.0,33.0,0.00,South,188,7.6,-999.0,100,0.00,,,-99.99,,2013-05-09 17:12:00,
2013-05-09 09:17:00,33.2,33.0,0.00,SSW,201,6.1,-999.0,100,0.00,,,-99.99,,2013-05-09 17:17:00,
2013-05-09 09:22:00,33.2,33.0,0.00,SSW,203,8.9,-999.0,100,0.00,,,-99.99,,2013-05-09 17:22:00,
2013-05-09 09:27:00,33.2,33.0,0.00,SSW,202,4.8,-999.0,100,0.00,,,-99.99,,2013-05-09 17:27:00,
2013-05-09 09:32:00,33.1,33.0,0.00,SW,227,11.2,-999.0,100,0.01,,,-99.99,,2013-05-09 17:32:00,
2013-05-09 09:37:00,33.0,33.0,0.00,WSW,239,10.6,-999.0,100,0.01,,,-99.99,,2013-05-09 17:37:00,
2013-05-09 09:42:00,33.3,33.0,0.00,WSW,249,9.3,-999.0,100,0.01,,,-99.99,,2013-05-09 17:42:00,
2013-05-09 09:47:00,33.2,33.0,0.00,WSW,238,10.6,-999.0,100,0.01,,,-99.99,,2013-05-09 17:47:00,
2013-05-09 09:52:00,33.3,33.2,0.00,WSW,238,10.8,-999.0,99,0.01,,,-99.99,,2013-05-09 17:52:00,
2013-05-09 09:57:00,33.5,33.0,0.00,WSW,241,12.5,-999.0,100,0.01,,,-99.99,,2013-05-09 17:57:00,
2013-05-09 10:02:00,33.5,33.0,0.00,SSW,202,11.4,-999.0,100,0.00,,,-99.99,,2013-05-09 18:02:00,
2013-05-09 10:07:00,33.5,33.0,0.00,SW,226,10.8,-999.0,100,0.00,,,-99.99,,2013-05-09 18:07:00,
2013-05-09 10:12:00,33.5,33.0,0.00,SSW,209,12.0,-999.0,100,0.00,,,-99.99,,2013-05-09 18:12:00,
2013-05-09 10:17:00,33.4,33.0,0.00,SW,226,14.1,-999.0,100,0.00,,,-99.99,,2013-05-09 18:17:00,
2013-05-09 10:22:00,33.6,33.0,0.00,SW,231,14.9,-999.0,100,0.00,,,-99.99,,2013-05-09 18:22:00,
2013-05-09 10:27:00,33.8,33.0,0.00,SW,233,14.9,-999.0,100,0.00,,,-99.99,,2013-05-09 18:27:00,
2013-05-09 10:32:00,33.8,33.0,0.00,SSW,213,10.0,-999.0,100,0.00,,,-99.99,,2013-05-09 18:32:00,
2013-05-09 10:37:00,33.9,33.0,0.00,SW,223,12.0,-999.0,100,0.01,,,-99.99,,2013-05-09 18:37:00,
2013-05-09 10:42:00,34.1,34.0,0.00,SW,220,10.8,-999.0,100,0.01,,,-99.99,,2013-05-09 18:42:00,
2013-05-09 10:47:00,34.0,33.0,0.00,SW,222,8.4,-999.0,100,0.01,,,-99.99,,2013-05-09 18:47:00,
2013-05-09 10:52:00,34.2,34.0,0.00,SW,234,14.5,-999.0,100,0.01,,,-99.99,,2013-05-09 18:52:00,
2013-05-09 10:57:00,34.3,34.3,0.00,SW,230,15.0,-999.0,99,0.01,,,-99.99,,2013-05-09 18:57:00,
2013-05-09 11:02:00,34.1,34.0,0.00,SW,221,13.6,-999.0,100,0.00,,,-99.99,,2013-05-09 19:02:00,
2013-05-09 11:07:00,34.5,34.4,0.00,SW,222,10.6,-999.0,99,0.00,,,-99.99,,2013-05-09 19:07:00,
2013-05-09 11:12:00,34.4,34.3,0.00,SW,217,11.4,-999.0,99,0.00,,,-99.99,,2013-05-09 19:12:00,
2013-05-09 11:17:00,34.2,34.0,0.00,SW,235,11.8,-999.0,100,0.00,,,-99.99,,2013-05-09 19:17:00,
2013-05-09 11:22:00,34.7,34.6,0.00,SSW,208,8.6,-999.0,99,0.00,,,-99.99,,2013-05-09 19:22:00,
2013-05-09 11:27:00,34.4,34.3,0.00,WSW,244,10.0,-999.0,99,0.00,,,-99.99,,2013-05-09 19:27:00,
2013-05-09 11:32:00,34.6,34.6,0.00,WSW,237,13.9,-999.0,99,0.00,,,-99.99,,2013-05-09 19:32:00,
2013-05-09 11:37:00,34.8,34.7,0.00,WSW,239,15.6,-999.0,99,0.00,,,-99.99,,2013-05-09 19:37:00,
2013-05-09 11:42:00,34.7,34.6,0.00,West,260,10.5,-999.0,99,0.00,,,-99.99,,2013-05-09 19:42:00,
2013-05-09 11:47:00,34.8,34.8,0.00,WSW,255,9.9,-999.0,99,0.00,,,-99.99,,2013-05-09 19:47:00,
2013-05-09 11:52:00,21.3,21.2,0.00,WSW,251,11.0,-999.0,99,0.00,,,-99.99,,2013-05-09 19:52:00,
2013-05-09 11:57:00,23.6,23.3,0.00,WSW,251,13.5,-999.0,98,0.00,,,-99.99,,2013-05-09 19:57:00,
2013-05-09 12:02:00,10.6,10.3,0.00,WSW,241,16.1,-999.0,99,0.00,,,-99.99,,2013-05-09 20:02:00,
2013-05-09 12:07:00,9.3,9.0,0.00,SW,222,10.6,-999.0,100,0.00,,,-99.99,,2013-05-09 20:07:00,
2013-05-09 12:12:00,8.2,8.0,0.00,WSW,255,11.0,-999.0,100,0.00,,,-99.99,,2013-05-09 20:12:00,
2013-05-09 12:17:00,7.6,7.0,0.00,SW,230,13.4,-999.0,100,0.00,,,-99.99,,2013-05-09 20:17:00,
2013-05-09 12:22:00,7.2,7.0,0.00,WSW,241,14.6,-999.0,112,0.00,,,-99.99,,2013-05-09 20:22:00,
2013-05-09 12:27:00,6.7,6.0,0.00,WSW,244,14.6,-999.0,116,0.00,,,-99.99,,2013-05-09 20:27:00,
2013-05-09 12:32:00,9.0,8.0,0.00,WSW,238,11.0,-999.0,120,0.00,,,-99.99,,2013-05-09 20:32:00,
2013-05-09 12:37:00,7.0,7.0,0.00,WSW,241,13.9,-999.0,118,0.00,,,-99.99,,2013-05-09 20:37:00,
2013-05-09 12:42:00,5.6,5.0,0.00,SW,235,13.5,-999.0,118,0.00,,,-99.99,,2013-05-09 20:42:00,
2013-05-09 12:47:00,5.3,5.0,0.00,WSW,250,13.0,-999.0,116,0.00,,,-99.99,,2013-05-09 20:47:00,
2013-05-09 12:52:00,4.6,4.0,0.00,WSW,249,12.3,-999.0,120,0.00,,,-99.99,,2013-05-09 20:52:00,
2013-05-09 12:57:00,4.1,4.0,0.00,WSW,251,12.5,-999.0,122,0.00,,,-99.99,,2013-05-09 20:57:00,
2013-05-09 13:02:00,3.5,3.0,0.00,WSW,251,13.4,-999.0,122,0.00,,,-99.99,,2013-05-09 21:02:00,
2013-05-09 13:09:00,2.9,2.0,0.00,WSW,250,15.6,-999.0,131,0.00,,,-99.99,,2013-05-09 21:09:00,
2013-05-09 13:14:00,2.7,2.0,0.00,SW,223,15.4,-999.0,140,0.00,,,-99.99,,2013-05-09 21:14:00,
2013-05-09 13:19:00,3.8,3.0,0.00,SW,229,12.2,-999.0,136,0.00,,,-99.99,,2013-05-09 21:19:00,
2013-05-09 13:24:00,2.4,2.0,0.00,WSW,239,17.5,-999.0,136,0.00,,,-99.99,,2013-05-09 21:24:00,
2013-05-09 13:29:00,4.0,4.0,0.00,WSW,245,13.0,-999.0,138,0.00,,,-99.99,,2013-05-09 21:29:00,
2013-05-09 13:34:00,3.5,3.0,0.00,SW,236,11.7,-999.0,139,0.00,,,-99.99,,2013-05-09 21:34:00,
2013-05-09 13:39:00,3.2,3.0,0.00,WSW,237,12.7,-999.0,148,0.00,,,-99.99,,2013-05-09 21:39:00,
2013-05-09 13:44:00,3.9,3.0,0.00,WSW,237,10.0,-999.0,147,0.00,,,-99.99,,2013-05-09 21:44:00,
2013-05-09 13:49:00,3.5,3.0,0.00,WSW,238,11.4,-999.0,147,0.00,,,-99.99,,2013-05-09 21:49:00,
2013-05-09 13:54:00,2.8,2.0,0.00,SW,225,12.8,-999.0,145,0.00,,,-99.99,,2013-05-09 21:54:00,
2013-05-09 13:59:00,2.7,2.0,0.00,SW,223,10.4,-999.0,145,0.00,,,-99.99,,2013-05-09 21:59:00,
2013-05-09 14:04:00,3.3,3.0,0.00,SW,223,12.4,-999.0,144,0.00,,,-99.99,,2013-05-09 22:04:00,
2013-05-09 14:09:00,3.4,3.0,0.00,WSW,240,13.9,-999.0,140,0.00,,,-99.99,,2013-05-09 22:09:00,
2013-05-09 14:14:00,3.5,3.0,0.00,SW,225,13.9,-999.0,140,0.00,,,-99.99,,2013-05-09 22:14:00,
2013-05-09 14:19:00,4.0,4.0,0.00,SW,216,7.2,-999.0,142,0.00,,,-99.99,,2013-05-09 22:19:00,
2013-05-09 14:24:00,3.9,3.0,0.00,SW,218,7.7,-999.0,145,0.00,,,-99.99,,2013-05-09 22:24:00,
2013-05-09 14:29:00,4.2,4.0,0.00,SW,232,14.0,-999.0,147,0.00,,,-99.99,,2013-05-09 22:29:00,
2013-05-09 14:34:00,4.6,4.0,0.00,WSW,253,12.0,-999.0,149,0.00,,,-99.99,,2013-05-09 22:34:00,
2013-05-09 14:39:00,4.3,4.0,0.00,WSW,248,13.6,-999.0,150,0.00,,,-99.99,,2013-05-09 22:39:00,
2013-05-09 14:44:00,3.9,3.0,0.00,WSW,244,14.2,-999.0,151,0.00,,,-99.99,,2013-05-09 22:44:00,
2013-05-09 14:49:00,4.4,4.0,0.00,WSW,243,9.2,-999.0,154,0.00,,,-99.99,,2013-05-09 22:49:00,
2013-05-09 14:54:00,4.6,4.0,0.00,West,259,11.8,-999.0,156,0.00,,,-99.99,,2013-05-09 22:54:00,
2013-05-09 14:59:00,4.9,4.0,0.00,WSW,238,11.9,-999.0,160,0.00,,,-99.99,,2013-05-09 22:59:00,
2013-05-09 15:04:00,5.3,5.0,0.00,SW,231,13.2,-999.0,162,0.00,,,-99.99,,2013-05-09 23:04:00,
2013-05-09 15:10:00,5.0,5.0,0.00,SW,225,14.2,-999.0,160,0.00,,,-99.99,,2013-05-09 23:10:00,
2013-05-09 15:15:00,5.5,5.0,0.00,SW,216,12.5,-999.0,161,0.00,,,-99.99,,2013-05-09 23:15:00,
2013-05-09 15:20:00,5.8,5.0,0.00,WSW,252,12.9,-999.0,161,0.00,,,-99.99,,2013-05-09 23:20:00,
2013-05-09 15:25:00,6.1,6.0,0.00,SW,220,11.6,-999.0,160,0.00,,,-99.99,,2013-05-09 23:25:00,
2013-05-09 15:30:00,6.4,6.0,0.00,WSW,251,9.7,-999.0,159,0.00,,,-99.99,,2013-05-09 23:30:00,
2013-05-09 15:35:00,6.6,6.0,0.00,WSW,248,11.8,-999.0,158,0.00,,,-99.99,,2013-05-09 23:35:00,
2013-05-09 15:40:00,7.1,7.0,0.00,SW,235,13.8,-999.0,156,0.00,,,-99.99,,2013-05-09 23:40:00,
2013-05-09 15:45:00,7.6,7.0,0.00,WSW,242,9.2,-999.0,154,0.00,,,-99.99,,2013-05-09 23:45:00,
2013-05-09 15:50:00,7.9,7.0,0.00,SW,236,8.7,-999.0,151,0.00,,,-99.99,,2013-05-09 23:50:00,
2013-05-09 15:55:00,7.9,7.0,0.00,SSW,210,6.2,-999.0,146,0.00,,,-99.99,,2013-05-09 23:55:00,
2013-05-09 16:00:00,8.2,8.0,0.00,WSW,251,9.8,-999.0,145,0.00,,,-99.99,,2013-05-10 00:00:00,
2013-05-09 16:05:00,8.4,8.0,0.00,South,191,9.2,-999.0,141,0.00,,,-99.99,,2013-05-10 00:05:00,
2013-05-09 16:10:00,8.4,8.0,0.00,SW,222,6.4,-999.0,136,0.00,,,-99.99,,2013-05-10 00:10:00,
2013-05-09 16:15:00,8.6,8.0,0.00,SW,236,7.3,-999.0,132,0.00,,,-99.99,,2013-05-10 00:15:00,
2013-05-09 16:20:00,8.7,8.0,0.00,South,191,7.6,-999.0,130,0.00,,,-99.99,,2013-05-10 00:20:00,
2013-05-09 16:25:00,8.6,8.0,0.00,South,180,10.7,-999.0,130,0.00,,,-99.99,,2013-05-10 00:25:00,
2013-05-09 16:30:00,8.4,8.0,0.00,SSW,193,10.9,-999.0,130,0.00,,,-99.99,,2013-05-10 00:30:00,
2013-05-09 16:35:00,8.7,8.0,0.00,South,183,11.5,-999.0,131,0.00,,,-99.99,,2013-05-10 00:35:00,
2013-05-09 16:40:00,9.1,9.0,0.00,South,189,10.0,-999.0,132,0.00,,,-99.99,,2013-05-10 00:40:00,
2013-05-09 16:45:00,9.3,9.0,0.00,South,172,14.5,-999.0,132,0.00,,,-99.99,,2013-05-10 00:45:00,
2013-05-09 16:50:00,9.5,9.0,0.00,SSW,193,9.2,-999.0,131,0.00,,,-99.99,,2013-05-10 00:50:00,
2013-05-09 16:55:00,9.7,9.0,0.00,SSW,198,8.9,-999.0,131,0.00,,,-99.99,,2013-05-10 00:55:00,
2013-05-09 17:00:00,9.9,9.0,0.00,South,176,10.4,-999.0,131,0.00,,,-99.99,,2013-05-10 01:00:00,
2013-05-09 17:05:00,10.1,10.0,0.00,SSW,192,9.2,-999.0,130,0.00,,,-99.99,,2013-05-10 01:05:00,
2013-05-09 17:10:00,10.3,10.0,0.00,SSE,167,11.1,-999.0,131,0.00,,,-99.99,,2013-05-10 01:10:00,
2013-05-09 17:16:00,10.4,10.0,0.00,South,177,11.6,-999.0,131,0.00,,,-99.99,,2013-05-10 01:16:00,
2013-05-09 17:21:00,10.9,10.0,0.00,South,181,12.1,-999.0,131,0.00,,,-99.99,,2013-05-10 01:21:00,
2013-05-09 17:26:00,11.0,11.0,0.00,South,184,11.1,-999.0,131,0.00,,,-99.99,,2013-05-10 01:26:00,
2013-05-09 17:31:00,11.4,11.0,0.00,South,191,9.1,-999.0,130,0.00,,,-99.99,,2013-05-10 01:31:00,
2013-05-09 17:36:00,11.6,11.0,0.00,South,171,12.1,-999.0,130,0.00,,,-99.99,,2013-05-10 01:36:00,
2013-05-09 17:41:00,11.7,11.0,0.00,South,178,13.6,-999.0,130,0.00,,,-99.99,,2013-05-10 01:41:00,
2013-05-09 17:46:00,12.0,12.0,0.00,South,174,12.3,-999.0,129,0.00,,,-99.99,,2013-05-10 01:46:00,
2013-05-09 17:51:00,12.0,12.0,0.00,South,177,10.1,-999.0,129,0.00,,,-99.99,,2013-05-10 01:51:00,
2013-05-09 17:56:00,12.3,12.0,0.00,South,182,13.1,-999.0,129,0.00,,,-99.99,,2013-05-10 01:56:00,
2013-05-09 18:01:00,12.5,12.0,0.00,South,175,12.2,-999.0,129,0.00,,,-99.99,,2013-05-10 02:01:00,
2013-05-09 18:06:00,12.8,12.0,0.00,SSW,193,9.6,-999.0,129,0.00,,,-99.99,,2013-05-10 02:06:00,
2013-05-09 18:11:00,13.2,13.0,0.00,SSW,192,11.0,-999.0,128,0.00,,,-99.99,,2013-05-10 02:11:00,
2013-05-09 18:16:00,13.4,13.0,0.00,SSW,195,9.9,-999.0,128,0.00,,,-99.99,,2013-05-10 02:16:00,
2013-05-09 18:21:00,13.9,13.0,0.00,SSW,198,8.5,-999.0,128,0.00,,,-99.99,,2013-05-10 02:21:00,
2013-05-09 18:26:00,14.2,14.0,0.00,SSW,210,8.1,-999.0,127,0.00,,,-99.99,,2013-05-10 02:26:00,
2013-05-09 18:31:00,14.1,14.0,0.00,SSW,198,9.1,-999.0,127,0.00,,,-99.99,,2013-05-10 02:31:00,
2013-05-09 18:36:00,14.4,14.0,0.00,SSW,209,7.6,-999.0,126,0.00,,,-99.99,,2013-05-10 02:36:00,
2013-05-09 18:41:00,14.6,14.0,0.00,SSW,194,11.1,-999.0,125,0.00,,,-99.99,,2013-05-10 02:41:00,
2013-05-09 18:46:00,14.7,14.0,0.00,South,191,11.8,-999.0,126,0.00,,,-99.99,,2013-05-10 02:46:00,
2013-05-09 18:51:00,14.8,14.0,0.00,South,175,8.4,-999.0,126,0.00,,,-99.99,,2013-05-10 02:51:00,
2013-05-09 18:56:00,15.0,15.0,0.00,SSE,163,10.0,-999.0,125,0.00,,,-99.99,,2013-05-10 02:56:00,
2013-05-09 19:01:00,15.1,15.0,0.00,South,170,9.5,-999.0,126,0.00,,,-99.99,,2013-05-10 03:01:00,
2013-05-09 19:06:00,15.4,15.0,0.00,South,189,7.6,-999.0,125,0.00,,,-99.99,,2013-05-10 03:06:00,
2013-05-09 19:11:00,15.2,15.0,0.00,South,186,10.9,-999.0,125,0.00,,,-99.99,,2013-05-10 03:11:00,
2013-05-09 19:16:00,15.5,15.0,0.00,South,189,10.6,-999.0,124,0.00,,,-99.99,,2013-05-10 03:16:00,
2013-05-09 19:21:00,15.5,15.0,0.00,South,184,10.8,-999.0,124,0.00,,,-99.99,,2013-05-10 03:21:00,
2013-05-09 19:26:00,15.4,15.0,0.00,SSW,199,10.0,-999.0,122,0.00,,,-99.99,,2013-05-10 03:26:00,
2013-05-09 19:31:00,15.5,15.0,0.00,South,182,8.5,-999.0,122,0.00,,,-99.99,,2013-05-10 03:31:00,
2013-05-09 19:36:00,15.5,15.0,0.00,South,188,9.0,-999.0,122,0.00,,,-99.99,,2013-05-10 03:36:00,
2013-05-09 19:41:00,15.4,15.0,0.00,SSW,194,7.2,-999.0,122,0.00,,,-99.99,,2013-05-10 03:41:00,
2013-05-09 19:46:00,15.4,15.0,0.00,South,181,9.2,-999.0,124,0.00,,,-99.99,,2013-05-10 03:46:00,
2013-05-09 19:51:00,15.3,15.0,0.00,South,184,6.8,-999.0,123,0.00,,,-99.99,,2013-05-10 03:51:00,
2013-05-09 19:56:00,15.4,15.0,0.00,South,188,8.1,-999.0,123,0.00,,,-99.99,,2013-05-10 03:56:00,
2013-05-09 20:01:00,15.2,15.0,0.00,South,175,7.9,-999.0,123,0.00,,,-99.99,,2013-05-10 04:01:00,
2013-05-09 20:02:00,15.2,15.0,0.00,South,176,9.3,-999.0,123,0.00,,,-99.99,,2013-05-10 04:02:00,
2013-05-09 20:07:00,15.3,15.0,0.00,SSE,166,7.5,-999.0,123,0.00,,,-99.99,,2013-05-10 04:07:00,
2013-05-09 20:08:00,15.3,15.0,0.00,SSE,165,6.8,-999.0,123,0.00,,,-99.99,,2013-05-10 04:08:00,
2013-05-09 20:10:00,15.3,15.0,0.00,SSE,162,7.9,-999.0,124,0.00,,,-99.99,,2013-05-10 04:10:00,
2013-05-09 20:13:00,15.2,15.0,0.00,SSE,157,9.4,-999.0,123,0.00,,,-99.99,,2013-05-10 04:13:00,
2013-05-09 20:18:00,15.3,15.0,0.00,SSE,159,8.7,-999.0,124,0.00,,,-99.99,,2013-05-10 04:18:00,
2013-05-09 20:25:00,15.1,15.0,0.00,SE,134,11.4,-999.0,126,0.00,,,-99.99,,2013-05-10 04:25:00,
2013-05-09 20:30:00,15.0,14.0,0.00,SE,137,11.6,-999.0,126,0.00,,,-99.99,,2013-05-10 04:30:00,
2013-05-09 20:35:00,14.8,14.0,0.00,SSE,158,7.8,-999.0,127,0.00,,,-99.99,,2013-05-10 04:35:00,
2013-05-09 20:40:00,14.7,14.0,0.00,SSE,150,8.6,-999.0,128,0.00,,,-99.99,,2013-05-10 04:40:00,
2013-05-09 20:45:00,14.8,14.0,0.00,SSE,166,8.9,-999.0,129,0.00,,,-99.99,,2013-05-10 04:45:00,
2013-05-09 20:50:00,14.7,14.0,0.00,SSE,151,9.7,-999.0,129,0.00,,,-99.99,,2013-05-10 04:50:00,
2013-05-09 20:55:00,14.6,14.0,0.00,SSE,155,9.0,-999.0,129,0.00,,,-99.99,,2013-05-10 04:55:00,
2013-05-09 21:00:00,14.6,14.0,0.00,SSE,155,9.4,-999.0,130,0.00,,,-99.99,,2013-05-10 05:00:00,
2013-05-09 21:05:00,14.2,14.0,0.00,SSE,164,9.2,-999.0,132,0.00,,,-99.99,,2013-05-10 05:05:00,
2013-05-09 21:10:00,14.1,14.0,0.00,SSE,165,11.8,-999.0,137,0.00,,,-99.99,,2013-05-10 05:10:00,
2013-05-09 21:15:00,13.8,13.0,0.00,SSE,153,13.9,-999.0,138,0.00,,,-99.99,,2013-05-10 05:15:00,
2013-05-09 21:20:00,13.6,13.0,0.00,SE,146,12.4,-999.0,138,0.00,,,-99.99,,2013-05-10 05:20:00,
2013-05-09 21:25:00,13.3,13.0,0.00,SSE,149,9.9,-999.0,140,0.00,,,-99.99,,2013-05-10 05:25:00,
2013-05-09 21:30:00,12.9,12.0,0.00,SSE,159,9.2,-999.0,141,0.00,,,-99.99,,2013-05-10 05:30:00,
2013-05-09 21:35:00,12.5,12.0,0.00,SE,143,11.3,-999.0,142,0.00,,,-99.99,,2013-05-10 05:35:00,
2013-05-09 21:40:00,12.4,12.0,0.00,SE,145,8.6,-999.0,143,0.00,,,-99.99,,2013-05-10 05:40:00,
2013-05-09 21:45:00,11.6,11.0,0.00,SE,136,8.7,-999.0,147,0.00,,,-99.99,,2013-05-10 05:45:00,
2013-05-09 21:50:00,10.6,10.0,0.00,SSE,154,11.1,-999.0,150,0.00,,,-99.99,,2013-05-10 05:50:00,
2013-05-09 21:55:00,10.1,10.0,0.00,SSE,152,9.0,-999.0,149,0.00,,,-99.99,,2013-05-10 05:55:00,
2013-05-09 22:00:00,9.4,9.0,0.00,SSE,149,9.9,-999.0,154,0.00,,,-99.99,,2013-05-10 06:00:00,
2013-05-09 22:07:00,9.0,8.0,0.00,SSE,153,9.1,-999.0,156,0.00,,,-99.99,,2013-05-10 06:07:00,
2013-05-09 22:12:00,8.9,8.0,0.00,SE,143,9.9,-999.0,158,0.00,,,-99.99,,2013-05-10 06:12:00,
2013-05-09 22:17:00,8.7,8.0,0.00,SE,138,12.4,-999.0,159,0.00,,,-99.99,,2013-05-10 06:17:00,
2013-05-09 22:22:00,8.6,8.0,0.00,SE,141,11.4,-999.0,159,0.00,,,-99.99,,2013-05-10 06:22:00,
2013-05-09 22:27:00,8.4,8.0,0.00,SE,145,11.2,-999.0,160,0.00,,,-99.99,,2013-05-10 06:27:00,
2013-05-09 22:32:00,8.5,8.0,0.00,SE,133,11.5,-999.0,159,0.00,,,-99.99,,2013-05-10 06:32:00,
2013-05-09 22:37:00,8.6,8.0,0.00,SE,138,12.8,-999.0,158,0.00,,,-99.99,,2013-05-10 06:37:00,
2013-05-09 22:42:00,8.6,8.0,0.00,SE,134,11.8,-999.0,158,0.00,,,-99.99,,2013-05-10 06:42:00,
2013-05-09 22:47:00,8.4,8.0,0.00,SE,126,10.8,-999.0,157,0.00,,,-99.99,,2013-05-10 06:47:00,
2013-05-09 22:52:00,8.4,8.0,0.00,SE,130,11.3,-999.0,158,0.00,,,-99.99,,2013-05-10 06:52:00,
2013-05-09 22:57:00,8.4,8.0,0.00,SE,136,11.4,-999.0,158,0.00,,,-99.99,,2013-05-10 06:57:00,
2013-05-09 23:02:00,8.4,8.0,0.00,SE,129,11.4,-999.0,157,0.00,,,-99.99,,2013-05-10 07:02:00,
2013-05-09 23:07:00,8.2,8.0,0.00,SE,138,11.1,-999.0,158,0.00,,,-99.99,,2013-05-10 07:07:00,
2013-05-09 23:12:00,8.4,8.0,0.00,SE,133,10.0,-999.0,158,0.00,,,-99.99,,2013-05-10 07:12:00,
2013-05-09 23:17:00,8.3,8.0,0.00,SE,136,11.2,-999.0,157,0.00,,,-99.99,,2013-05-10 07:17:00,
2013-05-09 23:22:00,8.4,8.0,0.00,SE,139,11.1,-999.0,157,0.00,,,-99.99,,2013-05-10 07:22:00,
2013-05-09 23:27:00,8.4,8.0,0.00,SE,127,9.7,-999.0,157,0.00,,,-99.99,,2013-05-10 07:27:00,
2013-05-09 23:32:00,8.6,8.0,0.00,SE,131,12.1,-999.0,156,0.00,,,-99.99,,2013-05-10 07:32:00,
2013-05-09 23:37:00,8.6,8.0,0.00,SE,138,13.9,-999.0,156,0.00,,,-99.99,,2013-05-10 07:37:00,
2013-05-09 23:42:00,9.0,8.0,0.00,ESE,122,13.7,-999.0,154,0.00,,,-99.99,,2013-05-10 07:42:00,
2013-05-09 23:47:00,8.7,8.0,0.00,SE,142,12.8,-999.0,156,0.00,,,-99.99,,2013-05-10 07:47:00,
2013-05-09 23:52:00,8.6,8.0,0.00,ESE,118,9.9,-999.0,156,0.00,,,-99.99,,2013-05-10 07:52:00,
2013-05-09 23:57:00,8.4,8.0,0.00,SE,135,11.1,-999.0,156,0.00,,,-99.99,,2013-05-10 07:57:00,